VIJP/JAI METAR and TAF weather

Enter ICAO airport designator
Station Type Date Time Source
VIJP METAR 2021/05/11 00:30 UTC NOAA

VIJP 110030Z 25004KT 2500 HZ SCT030 SCT100 26/14 Q1005 NOSIG


Station Type Date Time Source
VIJP Decoded METAR 2021/05/11 00:30 UTC NOAA

Jaipur / Sanganer, India (VIJP) 26-49N 075-48E 390M
May 10, 2021 - 08:30 PM EDT / 2021.05.11 0030 UTC
Wind: from the WSW (250 degrees) at 5 MPH (4 KT):0
Visibility: 1 mile(s):0
Sky conditions: partly cloudy
Weather: haze
Temperature: 78 F (26 C)
Dew Point: 57 F (14 C)
Relative Humidity: 47%
Pressure (altimeter): 29.68 in. Hg (1005 hPa)
ob: VIJP 110030Z 25004KT 2500 HZ SCT030 SCT100 26/14 Q1005 NOSIG
cycle: 0

Station Type Date Time Source
VIJP TAF 2021/05/10 18:00 UTC NOAA

TAF VIJP 101700Z 1018/1103 11004KT 2500 HZ SCT030 SCT100

Example: see airport list